createdAt,value
2023-04-20T00:02:25.499Z,46.45
2023-04-20T00:04:54.319Z,45.79
2023-04-20T00:07:24.826Z,46.50
2023-04-20T00:09:53.226Z,45.94
2023-04-20T00:12:22.965Z,45.44
2023-04-20T00:14:51.855Z,45.78
2023-04-20T00:17:20.406Z,45.62
2023-04-20T00:19:49.261Z,45.97
2023-04-20T00:22:17.708Z,45.56
2023-04-20T00:24:46.094Z,45.70
2023-04-20T00:27:14.506Z,45.44
2023-04-20T00:29:44.240Z,45.90
2023-04-20T00:32:12.699Z,45.99
2023-04-20T00:34:42.355Z,45.99
2023-04-20T00:37:10.725Z,45.61
2023-04-20T00:39:39.152Z,45.87
2023-04-20T00:42:08.230Z,46.43
2023-04-20T00:44:36.974Z,46.44
2023-04-20T00:47:07.193Z,46.39
2023-04-20T00:49:35.715Z,47.12
2023-04-20T00:52:04.296Z,46.94
2023-04-20T00:54:34.007Z,47.75
2023-04-20T00:57:02.620Z,47.54
2023-04-20T00:59:31.048Z,47.84
2023-04-20T01:02:00.028Z,48.00
2023-04-20T01:04:30.582Z,47.99
2023-04-20T01:07:00.076Z,47.89
2023-04-20T01:09:28.611Z,48.11
2023-04-20T01:11:57.080Z,48.32
2023-04-20T01:14:25.698Z,48.18
2023-04-20T01:16:54.107Z,48.16
2023-04-20T01:19:22.729Z,48.47
2023-04-20T01:21:52.808Z,48.49
2023-04-20T01:24:22.676Z,48.44
2023-04-20T01:26:51.124Z,48.55
2023-04-20T01:29:19.665Z,48.53
2023-04-20T01:31:48.170Z,48.49
2023-04-20T01:34:17.712Z,48.58
2023-04-20T01:36:47.194Z,48.58
2023-04-20T01:39:15.839Z,48.78
2023-04-20T01:41:45.912Z,48.87
2023-04-20T01:44:14.368Z,48.63
2023-04-20T01:46:42.916Z,48.94
2023-04-20T01:49:11.568Z,48.34
2023-04-20T01:51:39.951Z,48.63
2023-04-20T01:54:08.335Z,49.22
2023-04-20T01:56:37.096Z,48.89
2023-04-20T01:59:06.918Z,48.95
2023-04-20T02:01:35.435Z,49.04
2023-04-20T02:04:04.072Z,48.92
2023-04-20T02:06:33.092Z,49.38
2023-04-20T02:09:01.738Z,49.65
2023-04-20T02:11:30.134Z,50.03
2023-04-20T02:13:58.488Z,51.21
2023-04-20T02:16:29.335Z,52.12
2023-04-20T02:18:58.013Z,53.23
2023-04-20T02:21:26.456Z,53.55
2023-04-20T02:23:54.920Z,54.42
2023-04-20T02:26:23.788Z,55.29
2023-04-20T02:28:52.240Z,55.12
2023-04-20T02:31:20.760Z,55.95
2023-04-20T02:33:51.525Z,56.88
2023-04-20T02:36:20.687Z,57.05
2023-04-20T02:38:49.122Z,57.57
2023-04-20T02:41:17.546Z,57.63
2023-04-20T02:43:46.066Z,58.51
2023-04-20T02:46:14.476Z,57.94
2023-04-20T02:48:43.075Z,59.07
2023-04-20T02:51:13.378Z,59.51
2023-04-20T02:53:45.714Z,60.02
2023-04-20T02:56:27.957Z,59.87
2023-04-20T02:59:00.044Z,60.26
2023-04-20T03:01:48.767Z,60.52
2023-04-20T03:04:21.142Z,61.13
2023-04-20T03:07:06.931Z,61.58
2023-04-20T03:09:38.149Z,62.08
2023-04-20T03:12:09.754Z,62.10
2023-04-20T03:14:56.811Z,62.61
2023-04-20T03:17:36.722Z,62.60
2023-04-20T03:20:06.119Z,63.46
2023-04-20T03:22:35.885Z,64.40
2023-04-20T03:25:04.676Z,64.05
2023-04-20T03:27:48.620Z,64.52
2023-04-20T03:30:17.377Z,65.35
2023-04-20T03:32:49.033Z,65.79
2023-04-20T03:35:17.817Z,66.99
2023-04-20T03:37:47.839Z,66.84
2023-04-20T03:40:16.203Z,68.76
2023-04-20T03:42:44.601Z,68.86
2023-04-20T03:45:14.704Z,68.76
2023-04-20T03:47:43.760Z,68.90
2023-04-20T03:50:12.644Z,70.17
2023-04-20T03:52:41.618Z,70.17
2023-04-20T03:55:13.196Z,70.93
2023-04-20T03:57:47.392Z,72.02
2023-04-20T04:00:17.038Z,70.94
2023-04-20T04:02:48.303Z,71.82
2023-04-20T04:05:24.450Z,70.75
2023-04-20T04:07:53.192Z,71.62
2023-04-20T04:10:22.954Z,72.59
2023-04-20T04:12:51.421Z,72.37
2023-04-20T04:15:20.315Z,72.92
2023-04-20T04:17:55.715Z,72.49
2023-04-20T04:20:24.643Z,72.60
2023-04-20T04:22:53.712Z,72.58
2023-04-20T04:25:43.688Z,73.20
2023-04-20T04:28:14.770Z,73.49
2023-04-20T04:30:52.511Z,73.61
2023-04-20T04:33:21.997Z,74.22
2023-04-20T04:35:53.696Z,73.70
2023-04-20T04:38:22.699Z,74.00
2023-04-20T04:40:54.023Z,74.32
2023-04-20T04:43:22.554Z,74.70
2023-04-20T04:46:00.622Z,74.25
2023-04-20T04:48:29.624Z,74.32
2023-04-20T04:50:58.046Z,74.20
2023-04-20T04:53:26.464Z,75.48
2023-04-20T04:55:56.243Z,75.21
2023-04-20T04:58:25.071Z,75.70
2023-04-20T05:00:53.532Z,76.23
2023-04-20T05:03:22.089Z,75.78
2023-04-20T05:05:50.694Z,75.92
2023-04-20T05:08:19.129Z,75.50
2023-04-20T05:10:47.592Z,76.24
2023-04-20T05:13:17.297Z,76.16
2023-04-20T05:15:45.922Z,76.57
2023-04-20T05:18:14.236Z,75.75
2023-04-20T05:20:42.632Z,75.43
2023-04-20T05:23:10.977Z,76.39
2023-04-20T05:25:39.623Z,74.89
2023-04-20T05:28:07.953Z,75.66
2023-04-20T05:30:37.661Z,75.18
2023-04-20T05:33:06.092Z,75.09
2023-04-20T05:35:34.492Z,76.06
2023-04-20T05:38:06.238Z,73.90
2023-04-20T05:40:35.581Z,75.45
2023-04-20T05:43:04.099Z,74.34
2023-04-20T05:45:34.142Z,73.57
2023-04-20T05:48:04.077Z,74.34
2023-04-20T05:50:32.472Z,74.52
2023-04-20T05:53:01.022Z,73.25
2023-04-20T05:55:29.506Z,73.10
2023-04-20T05:57:58.222Z,73.44
2023-04-20T06:00:26.698Z,74.14
2023-04-20T06:02:55.658Z,73.91
2023-04-20T06:05:25.912Z,73.75
2023-04-20T06:07:54.365Z,73.18
2023-04-20T06:10:22.871Z,73.22
2023-04-20T06:12:51.497Z,72.83
2023-04-20T06:15:20.072Z,73.35
2023-04-20T06:17:48.626Z,73.47
2023-04-20T06:20:17.294Z,73.02
2023-04-20T06:22:47.722Z,73.08
2023-04-20T06:25:16.424Z,72.63
2023-04-20T06:27:44.948Z,72.22
2023-04-20T06:30:14.711Z,71.94
2023-04-20T06:32:43.098Z,73.17
2023-04-20T06:35:11.731Z,73.44
2023-04-20T06:37:40.757Z,74.20
2023-04-20T06:40:10.990Z,73.50
2023-04-20T06:42:39.357Z,73.85
2023-04-20T06:45:09.383Z,74.03
2023-04-20T06:47:37.909Z,74.42
2023-04-20T06:50:09.702Z,74.94
2023-04-20T06:52:39.106Z,74.00
2023-04-20T06:55:08.410Z,74.42
2023-04-20T06:57:38.723Z,73.42
2023-04-20T07:00:10.062Z,73.72
2023-04-20T07:02:46.102Z,73.95
2023-04-20T07:05:14.735Z,74.03
2023-04-20T07:07:43.670Z,75.24
2023-04-20T07:10:14.959Z,74.84
2023-04-20T07:12:47.004Z,74.26
2023-04-20T07:15:15.705Z,74.03
2023-04-20T07:17:44.147Z,74.07
2023-04-20T07:20:13.180Z,74.06
2023-04-20T07:22:41.715Z,74.34
2023-04-20T07:25:11.537Z,74.03
2023-04-20T07:27:41.872Z,73.64
2023-04-20T07:30:13.149Z,74.36
2023-04-20T07:32:42.495Z,74.21
2023-04-20T07:35:11.673Z,73.10
2023-04-20T07:37:40.761Z,73.91
2023-04-20T07:40:10.899Z,72.35
2023-04-20T07:42:39.384Z,72.81
2023-04-20T07:45:09.802Z,71.84
2023-04-20T07:47:39.860Z,71.81
2023-04-20T07:50:09.608Z,71.18
2023-04-20T07:52:37.940Z,70.51
2023-04-20T07:55:08.303Z,69.65
2023-04-20T07:57:37.136Z,69.32
2023-04-20T08:00:08.488Z,68.38
2023-04-20T08:02:42.652Z,68.24
2023-04-20T08:05:11.714Z,67.67
2023-04-20T08:07:40.746Z,67.31
2023-04-20T08:10:10.647Z,66.75
2023-04-20T08:12:39.688Z,65.59
2023-04-20T08:15:10.189Z,63.73
2023-04-20T08:17:38.526Z,64.28
2023-04-20T08:20:10.765Z,62.84
2023-04-20T08:22:40.050Z,60.54
2023-04-20T08:25:09.322Z,60.21
2023-04-20T08:27:37.762Z,58.96
2023-04-20T08:30:08.883Z,60.09
2023-04-20T08:32:37.348Z,59.88
2023-04-20T08:35:08.671Z,59.99
2023-04-20T08:37:37.561Z,59.32
2023-04-20T08:40:07.251Z,57.86
2023-04-20T08:42:35.788Z,57.36
2023-04-20T08:45:04.570Z,56.25
2023-04-20T08:47:34.796Z,56.43
2023-04-20T08:50:07.788Z,55.92
2023-04-20T08:52:38.713Z,55.55
2023-04-20T08:55:09.152Z,54.77
2023-04-20T08:57:37.597Z,54.41
2023-04-20T09:00:13.024Z,53.28
2023-04-20T09:02:51.536Z,51.82
2023-04-20T09:05:29.178Z,51.84
2023-04-20T09:08:01.960Z,50.65
2023-04-20T09:10:42.622Z,48.98
2023-04-20T09:13:23.038Z,48.92
2023-04-20T09:15:52.208Z,48.64
2023-04-20T09:18:21.358Z,47.94
2023-04-20T09:20:51.549Z,48.06
2023-04-20T09:23:21.577Z,48.65
2023-04-20T09:25:53.533Z,47.65
2023-04-20T09:28:22.193Z,46.95
2023-04-20T09:30:51.808Z,46.11
2023-04-20T09:33:20.316Z,44.72
2023-04-20T09:35:50.045Z,44.47
2023-04-20T09:38:18.541Z,43.37
2023-04-20T09:40:46.985Z,46.24
2023-04-20T09:43:20.835Z,46.15
2023-04-20T09:45:50.509Z,44.72
2023-04-20T09:48:20.917Z,45.68
2023-04-20T09:50:51.927Z,44.34
2023-04-20T09:53:21.160Z,41.92
2023-04-20T09:55:51.843Z,42.10
2023-04-20T09:58:21.862Z,42.77
2023-04-20T10:00:51.110Z,43.98
2023-04-20T10:03:20.589Z,42.82
2023-04-20T10:05:52.948Z,41.83
2023-04-20T10:08:21.901Z,41.53
2023-04-20T10:10:52.318Z,42.13
2023-04-20T10:13:23.245Z,43.42
2023-04-20T10:15:51.593Z,43.69
2023-04-20T10:18:23.595Z,44.02
2023-04-20T10:21:05.874Z,44.57
2023-04-20T10:23:34.321Z,46.32
2023-04-20T10:26:03.934Z,45.93
2023-04-20T10:28:42.972Z,45.77
2023-04-20T10:31:13.756Z,45.26
2023-04-20T10:33:53.781Z,44.66
2023-04-20T10:36:29.401Z,46.72
2023-04-20T10:38:58.157Z,47.63
2023-04-20T10:41:27.207Z,46.38
2023-04-20T10:43:55.644Z,47.33
2023-04-20T10:46:26.386Z,48.73
2023-04-20T10:48:56.653Z,48.36
2023-04-20T10:51:26.987Z,46.38
2023-04-20T10:54:05.053Z,47.32
2023-04-20T10:56:40.995Z,46.07
2023-04-20T10:59:10.384Z,46.31
2023-04-20T11:01:39.495Z,45.71
2023-04-20T11:04:08.263Z,42.95
2023-04-20T11:06:39.551Z,43.38
2023-04-20T11:09:20.021Z,47.41
2023-04-20T11:12:02.011Z,45.98
2023-04-20T11:14:31.323Z,47.57
2023-04-20T11:16:59.995Z,49.86
2023-04-20T11:19:30.703Z,50.18
2023-04-20T11:22:00.954Z,49.81
2023-04-20T11:24:31.894Z,50.74
2023-04-20T11:27:02.232Z,50.22
2023-04-20T11:29:33.302Z,51.22
2023-04-20T11:32:05.300Z,50.47
2023-04-20T11:34:35.552Z,49.97
2023-04-20T11:37:07.818Z,49.56
2023-04-20T11:39:36.504Z,47.75
2023-04-20T11:42:06.166Z,48.74
2023-04-20T11:44:36.837Z,48.79
2023-04-20T11:47:06.154Z,46.11
2023-04-20T11:49:34.674Z,45.99
2023-04-20T11:52:03.334Z,45.63
2023-04-20T11:54:35.071Z,45.22
2023-04-20T11:57:04.600Z,44.74
2023-04-20T11:59:33.183Z,44.45
2023-04-20T12:02:04.224Z,44.07
2023-04-20T12:04:33.593Z,44.63
2023-04-20T12:07:03.485Z,44.88
2023-04-20T12:09:36.189Z,45.52
2023-04-20T12:12:04.911Z,47.00
2023-04-20T12:14:34.622Z,46.38
2023-04-20T12:17:03.865Z,46.20
2023-04-20T12:19:32.932Z,44.42
2023-04-20T12:22:01.299Z,44.23
2023-04-20T12:24:29.683Z,43.21
2023-04-20T12:26:59.535Z,42.15
2023-04-20T12:29:28.016Z,41.89
2023-04-20T12:31:56.587Z,42.47
2023-04-20T12:34:25.096Z,42.72
2023-04-20T12:36:53.538Z,43.71
2023-04-20T12:39:21.998Z,44.80
2023-04-20T12:41:50.342Z,43.53
2023-04-20T12:44:20.371Z,41.79
2023-04-20T12:46:49.114Z,40.61
2023-04-20T12:49:17.871Z,41.66
2023-04-20T12:51:46.609Z,40.63
2023-04-20T12:54:14.917Z,40.09
2023-04-20T12:56:43.296Z,39.92
2023-04-20T12:59:11.721Z,41.10
2023-04-20T13:01:41.684Z,41.01
2023-04-20T13:04:10.415Z,41.10
2023-04-20T13:06:38.969Z,41.41
2023-04-20T13:09:07.383Z,41.07
2023-04-20T13:11:35.965Z,40.99
2023-04-20T13:14:04.973Z,38.78
2023-04-20T13:16:33.452Z,37.07
2023-04-20T13:19:03.381Z,36.00
2023-04-20T13:21:33.194Z,35.36
2023-04-20T13:24:01.620Z,35.05
2023-04-20T13:26:30.264Z,35.68
2023-04-20T13:28:58.897Z,36.53
2023-04-20T13:31:27.662Z,37.41
2023-04-20T13:33:56.323Z,37.72
2023-04-20T13:36:28.367Z,37.47
2023-04-20T13:38:57.525Z,37.39
2023-04-20T13:41:26.055Z,37.18
2023-04-20T13:43:54.537Z,37.64
2023-04-20T13:46:23.116Z,37.38
2023-04-20T13:48:51.606Z,37.06
2023-04-20T13:51:20.455Z,38.24
2023-04-20T13:53:50.448Z,42.56
2023-04-20T13:56:18.952Z,45.25
2023-04-20T13:58:47.330Z,46.50
2023-04-20T14:01:17.095Z,45.41
2023-04-20T14:03:45.937Z,47.34
2023-04-20T14:06:14.361Z,45.26
2023-04-20T14:08:42.785Z,44.71
2023-04-20T14:11:13.986Z,44.77
2023-04-20T14:13:42.509Z,46.64
2023-04-20T14:16:12.166Z,48.02
2023-04-20T14:18:40.858Z,48.46
2023-04-20T14:21:09.427Z,47.66
2023-04-20T14:23:38.231Z,47.54
2023-04-20T14:26:06.866Z,45.76
2023-04-20T14:28:36.668Z,45.33
2023-04-20T14:31:05.121Z,44.09
2023-04-20T14:33:37.040Z,42.64
2023-04-20T14:36:05.895Z,42.35
2023-04-20T14:38:34.286Z,43.05
2023-04-20T14:41:03.009Z,43.14
2023-04-20T14:43:32.361Z,41.86
2023-04-20T14:46:02.657Z,42.41
2023-04-20T14:48:31.170Z,42.74
2023-04-20T14:51:00.424Z,42.34
2023-04-20T14:53:29.276Z,42.67
2023-04-20T14:55:58.550Z,43.18
2023-04-20T14:58:26.947Z,42.58
2023-04-20T15:00:55.925Z,43.24
2023-04-20T15:03:25.953Z,44.70
2023-04-20T15:05:55.137Z,48.34
2023-04-20T15:08:24.855Z,49.81
2023-04-20T15:10:56.570Z,50.46
2023-04-20T15:13:25.463Z,51.43
2023-04-20T15:15:55.481Z,52.05
2023-04-20T15:18:25.556Z,53.16
2023-04-20T15:20:53.957Z,52.61
2023-04-20T15:23:22.501Z,53.00
2023-04-20T15:25:51.012Z,54.85
2023-04-20T15:28:19.484Z,54.41
2023-04-20T15:30:47.818Z,54.82
2023-04-20T15:33:16.282Z,55.58
2023-04-20T15:35:46.073Z,55.04
2023-04-20T15:38:14.594Z,55.11
2023-04-20T15:40:43.375Z,55.88
2023-04-20T15:43:11.778Z,55.12
2023-04-20T15:45:40.830Z,55.36
2023-04-20T15:48:10.636Z,55.34
2023-04-20T15:50:39.042Z,55.32
2023-04-20T15:53:08.816Z,54.98
2023-04-20T15:55:39.783Z,54.27
2023-04-20T15:58:08.154Z,54.62
2023-04-20T16:00:36.863Z,54.04
2023-04-20T16:03:05.800Z,54.00
2023-04-20T16:05:34.793Z,53.58
2023-04-20T16:08:03.292Z,53.21
2023-04-20T16:10:33.274Z,53.85
2023-04-20T16:13:01.794Z,53.33
2023-04-20T16:15:30.748Z,53.02
2023-04-20T16:18:00.080Z,52.97
2023-04-20T16:20:28.722Z,53.14
2023-04-20T16:22:57.110Z,53.04
2023-04-20T16:25:25.945Z,53.08
2023-04-20T16:27:55.942Z,53.33
2023-04-20T16:30:24.511Z,54.31
2023-04-20T16:32:53.298Z,55.54
2023-04-20T16:35:21.936Z,55.62
2023-04-20T16:37:50.347Z,56.76
2023-04-20T16:40:20.901Z,57.64
2023-04-20T16:42:49.341Z,57.72
2023-04-20T16:45:19.834Z,57.53
2023-04-20T16:47:48.923Z,58.39
2023-04-20T16:50:19.583Z,59.06
2023-04-20T16:52:48.477Z,60.81
2023-04-20T16:55:17.306Z,60.10
2023-04-20T16:57:45.759Z,60.93
2023-04-20T17:00:15.993Z,61.68
2023-04-20T17:02:45.972Z,61.16
2023-04-20T17:05:14.629Z,62.70
2023-04-20T17:07:43.024Z,61.89
2023-04-20T17:10:11.971Z,63.71
2023-04-20T17:12:41.661Z,63.66
2023-04-20T17:15:12.389Z,63.95
2023-04-20T17:17:40.863Z,64.49
2023-04-20T17:20:11.905Z,64.42
2023-04-20T17:22:40.300Z,65.77
2023-04-20T17:25:10.484Z,65.86
2023-04-20T17:27:38.958Z,65.64
2023-04-20T17:30:09.130Z,66.13
2023-04-20T17:32:37.505Z,66.92
2023-04-20T17:35:06.926Z,67.21
2023-04-20T17:37:37.482Z,66.43
2023-04-20T17:40:08.152Z,67.47
2023-04-20T17:42:36.549Z,68.68
2023-04-20T17:45:05.717Z,68.52
2023-04-20T17:47:34.239Z,69.67
2023-04-20T17:50:04.702Z,69.80
2023-04-20T17:52:33.231Z,69.96
2023-04-20T17:55:03.080Z,68.93
2023-04-20T17:57:31.472Z,70.75
2023-04-20T17:59:59.865Z,69.89
2023-04-20T18:02:28.646Z,70.64
2023-04-20T18:04:59.675Z,71.75
2023-04-20T18:07:28.770Z,70.97
2023-04-20T18:09:57.119Z,70.91
2023-04-20T18:12:27.154Z,70.91
2023-04-20T18:14:55.594Z,71.39
2023-04-20T18:17:24.074Z,71.71
2023-04-20T18:19:52.496Z,72.02
2023-04-20T18:22:20.912Z,72.41
2023-04-20T18:24:51.271Z,71.87
2023-04-20T18:27:20.416Z,72.22
2023-04-20T18:29:50.614Z,71.96
2023-04-20T18:32:19.019Z,72.41
2023-04-20T18:34:47.458Z,73.24
2023-04-20T18:37:15.901Z,73.15
2023-04-20T18:39:44.417Z,74.80
2023-04-20T18:42:12.835Z,75.71
2023-04-20T18:44:41.668Z,76.52
2023-04-20T18:47:11.456Z,76.83
2023-04-20T18:49:39.925Z,76.32
2023-04-20T18:52:08.669Z,77.86
2023-04-20T18:54:38.456Z,78.50
2023-04-20T18:57:07.745Z,77.92
2023-04-20T18:59:36.277Z,77.78
2023-04-20T19:02:04.785Z,79.63
2023-04-20T19:04:36.244Z,78.73
2023-04-20T19:07:04.677Z,78.82
2023-04-20T19:09:33.049Z,78.77
2023-04-20T19:12:02.266Z,78.97
2023-04-20T19:14:30.763Z,79.10
2023-04-20T19:16:59.197Z,78.63
2023-04-20T19:19:27.617Z,79.27
2023-04-20T19:21:57.828Z,80.39
2023-04-20T19:24:26.230Z,80.32
2023-04-20T19:26:54.783Z,79.33
2023-04-20T19:29:23.198Z,79.14
2023-04-20T19:31:51.847Z,78.50
2023-04-20T19:34:22.223Z,79.15
2023-04-20T19:36:50.628Z,79.00
2023-04-20T19:39:20.348Z,78.70
2023-04-20T19:41:49.312Z,79.29
2023-04-20T19:44:18.072Z,79.95
2023-04-20T19:46:46.548Z,79.37
2023-04-20T19:49:14.984Z,79.27
2023-04-20T19:51:43.397Z,79.26
2023-04-20T19:54:12.129Z,79.27
2023-04-20T19:56:41.864Z,79.69
2023-04-20T19:59:10.367Z,79.99
2023-04-20T20:01:38.870Z,81.03
2023-04-20T20:04:07.424Z,80.51
2023-04-20T20:06:36.022Z,80.73
2023-04-20T20:09:06.158Z,81.18
2023-04-20T20:11:34.573Z,80.72
2023-04-20T20:14:04.324Z,80.88
2023-04-20T20:16:32.681Z,80.73
2023-04-20T20:19:01.155Z,80.20
2023-04-20T20:21:29.702Z,80.61
2023-04-20T20:23:58.130Z,80.46
2023-04-20T20:26:26.976Z,79.87
2023-04-20T20:28:55.503Z,81.21
2023-04-20T20:31:25.426Z,80.11
2023-04-20T20:33:53.821Z,80.11
2023-04-20T20:36:22.384Z,80.32
2023-04-20T20:38:50.908Z,80.48
2023-04-20T20:41:21.217Z,81.08
2023-04-20T20:43:50.551Z,80.71
2023-04-20T20:46:19.230Z,81.03
2023-04-20T20:48:49.057Z,80.88
2023-04-20T20:51:17.463Z,80.52
2023-04-20T20:53:46.461Z,80.48
2023-04-20T20:56:14.885Z,81.07
2023-04-20T20:58:43.316Z,81.25
2023-04-20T21:01:12.234Z,80.90
2023-04-20T21:03:41.108Z,80.59
2023-04-20T21:06:11.046Z,80.65
2023-04-20T21:08:39.496Z,80.94
2023-04-20T21:11:07.864Z,81.11
2023-04-20T21:13:36.446Z,80.70
2023-04-20T21:16:05.087Z,79.80
2023-04-20T21:18:34.124Z,80.29
2023-04-20T21:21:02.551Z,80.30
2023-04-20T21:23:32.307Z,80.73
2023-04-20T21:26:00.898Z,81.06
2023-04-20T21:28:29.367Z,80.87
2023-04-20T21:30:57.838Z,80.47
2023-04-20T21:33:26.330Z,80.61
2023-04-20T21:35:55.491Z,80.29
2023-04-20T21:38:25.470Z,79.95
2023-04-20T21:40:55.215Z,80.23
2023-04-20T21:43:23.596Z,80.15
2023-04-20T21:45:51.967Z,80.48
2023-04-20T21:48:20.352Z,80.74
2023-04-20T21:50:48.724Z,80.71
2023-04-20T21:53:17.155Z,81.56
2023-04-20T21:55:45.699Z,82.25
2023-04-20T21:58:15.705Z,82.23
2023-04-20T22:00:44.113Z,81.72
2023-04-20T22:03:12.719Z,81.53
2023-04-20T22:05:41.222Z,81.70
2023-04-20T22:08:09.661Z,81.72
2023-04-20T22:10:38.353Z,81.74
2023-04-20T22:13:06.825Z,81.14
2023-04-20T22:15:36.620Z,81.49
2023-04-20T22:18:05.469Z,81.43
2023-04-20T22:20:34.390Z,81.02
2023-04-20T22:23:05.840Z,81.23
2023-04-20T22:25:34.365Z,81.03
2023-04-20T22:28:02.894Z,81.10
2023-04-20T22:30:31.456Z,81.28
2023-04-20T22:33:01.522Z,81.10
2023-04-20T22:35:30.492Z,81.95
2023-04-20T22:37:59.379Z,81.64
2023-04-20T22:40:28.057Z,81.63
2023-04-20T22:42:56.534Z,81.50
2023-04-20T22:45:25.013Z,81.49
2023-04-20T22:47:53.526Z,81.50
2023-04-20T22:50:23.469Z,82.09
2023-04-20T22:52:52.187Z,81.61
2023-04-20T22:55:20.664Z,82.25
2023-04-20T22:57:49.093Z,81.16
2023-04-20T23:00:18.506Z,81.74
2023-04-20T23:02:47.075Z,81.74
2023-04-20T23:05:20.147Z,80.73
2023-04-20T23:07:50.203Z,80.64
2023-04-20T23:10:19.061Z,81.33
2023-04-20T23:12:47.935Z,81.41
2023-04-20T23:15:16.437Z,81.48
2023-04-20T23:17:44.931Z,81.43
2023-04-20T23:20:15.131Z,81.11
2023-04-20T23:22:43.521Z,80.76
2023-04-20T23:25:13.280Z,80.91
2023-04-20T23:27:41.632Z,80.93
2023-04-20T23:30:11.442Z,81.47
2023-04-20T23:32:40.769Z,81.07
2023-04-20T23:35:10.899Z,80.36
2023-04-20T23:37:39.320Z,80.57
2023-04-20T23:40:10.464Z,80.90
2023-04-20T23:42:40.379Z,81.29
2023-04-20T23:45:10.488Z,81.12
2023-04-20T23:47:38.992Z,81.17
2023-04-20T23:50:09.421Z,81.61
2023-04-20T23:52:38.065Z,81.22
2023-04-20T23:55:07.361Z,80.59
2023-04-20T23:57:35.888Z,81.17
